sensor_id;sensor_type;location;lat;lon;timestamp;temperature;humidity
21891;DHT22;11110;52.386;16.940;2023-02-22T00:00:59;20.40;40.60
21891;DHT22;11110;52.386;16.940;2023-02-22T00:03:33;20.30;40.60
21891;DHT22;11110;52.386;16.940;2023-02-22T00:06:03;20.30;40.50
21891;DHT22;11110;52.386;16.940;2023-02-22T00:08:34;20.40;40.60
21891;DHT22;11110;52.386;16.940;2023-02-22T00:11:04;20.50;40.60
21891;DHT22;11110;52.386;16.940;2023-02-22T00:13:37;20.30;40.60
21891;DHT22;11110;52.386;16.940;2023-02-22T00:16:06;20.30;40.60
21891;DHT22;11110;52.386;16.940;2023-02-22T00:18:34;20.30;40.80
21891;DHT22;11110;52.386;16.940;2023-02-22T00:21:04;20.30;40.80
21891;DHT22;11110;52.386;16.940;2023-02-22T00:23:39;20.20;41.50
21891;DHT22;11110;52.386;16.940;2023-02-22T00:26:09;20.10;40.90
21891;DHT22;11110;52.386;16.940;2023-02-22T00:28:41;20.10;41.00
21891;DHT22;11110;52.386;16.940;2023-02-22T00:31:09;20.20;41.00
21891;DHT22;11110;52.386;16.940;2023-02-22T00:33:38;20.30;40.90
21891;DHT22;11110;52.386;16.940;2023-02-22T00:36:08;20.40;40.70
21891;DHT22;11110;52.386;16.940;2023-02-22T00:38:37;20.30;40.90
21891;DHT22;11110;52.386;16.940;2023-02-22T00:41:06;20.30;40.90
21891;DHT22;11110;52.386;16.940;2023-02-22T00:43:35;20.20;41.10
21891;DHT22;11110;52.386;16.940;2023-02-22T00:46:05;20.20;41.10
21891;DHT22;11110;52.386;16.940;2023-02-22T00:48:33;20.10;41.20
21891;DHT22;11110;52.386;16.940;2023-02-22T00:51:02;20.00;41.20
21891;DHT22;11110;52.386;16.940;2023-02-22T00:53:31;20.10;41.20
21891;DHT22;11110;52.386;16.940;2023-02-22T00:55:59;20.10;41.20
21891;DHT22;11110;52.386;16.940;2023-02-22T00:58:28;20.10;41.30
21891;DHT22;11110;52.386;16.940;2023-02-22T01:00:57;20.10;41.20
21891;DHT22;11110;52.386;16.940;2023-02-22T01:03:27;20.00;41.20
21891;DHT22;11110;52.386;16.940;2023-02-22T01:05:55;20.10;41.20
21891;DHT22;11110;52.386;16.940;2023-02-22T01:08:24;20.10;41.20
21891;DHT22;11110;52.386;16.940;2023-02-22T01:10:52;20.10;41.20
21891;DHT22;11110;52.386;16.940;2023-02-22T01:13:23;20.10;41.20
21891;DHT22;11110;52.386;16.940;2023-02-22T01:15:51;20.20;41.30
21891;DHT22;11110;52.386;16.940;2023-02-22T01:18:23;20.00;41.20
21891;DHT22;11110;52.386;16.940;2023-02-22T01:20:53;20.00;41.20
21891;DHT22;11110;52.386;16.940;2023-02-22T01:23:22;20.20;41.30
21891;DHT22;11110;52.386;16.940;2023-02-22T01:25:51;20.00;41.10
21891;DHT22;11110;52.386;16.940;2023-02-22T01:28:20;20.10;41.20
21891;DHT22;11110;52.386;16.940;2023-02-22T01:30:49;20.10;41.10
21891;DHT22;11110;52.386;16.940;2023-02-22T01:33:18;20.10;41.10
21891;DHT22;11110;52.386;16.940;2023-02-22T01:35:47;19.90;41.30
21891;DHT22;11110;52.386;16.940;2023-02-22T01:38:18;19.90;41.50
21891;DHT22;11110;52.386;16.940;2023-02-22T01:40:48;19.90;41.60
21891;DHT22;11110;52.386;16.940;2023-02-22T01:43:20;19.90;42.10
21891;DHT22;11110;52.386;16.940;2023-02-22T01:45:54;20.00;41.20
21891;DHT22;11110;52.386;16.940;2023-02-22T01:48:34;20.00;41.30
21891;DHT22;11110;52.386;16.940;2023-02-22T01:51:08;20.00;41.30
21891;DHT22;11110;52.386;16.940;2023-02-22T01:53:44;19.90;41.30
21891;DHT22;11110;52.386;16.940;2023-02-22T01:56:15;20.00;41.30
21891;DHT22;11110;52.386;16.940;2023-02-22T01:58:47;20.00;41.30
21891;DHT22;11110;52.386;16.940;2023-02-22T02:01:19;20.10;41.30
21891;DHT22;11110;52.386;16.940;2023-02-22T02:03:50;19.80;41.40
21891;DHT22;11110;52.386;16.940;2023-02-22T02:06:19;19.70;41.60
21891;DHT22;11110;52.386;16.940;2023-02-22T02:08:56;19.70;41.80
21891;DHT22;11110;52.386;16.940;2023-02-22T02:11:26;19.60;41.80
21891;DHT22;11110;52.386;16.940;2023-02-22T02:13:59;19.80;41.80
21891;DHT22;11110;52.386;16.940;2023-02-22T02:16:34;19.70;41.80
21891;DHT22;11110;52.386;16.940;2023-02-22T02:19:11;19.70;41.70
21891;DHT22;11110;52.386;16.940;2023-02-22T02:22:11;19.40;41.90
21891;DHT22;11110;52.386;16.940;2023-02-22T02:31:49;19.50;42.00
21891;DHT22;11110;52.386;16.940;2023-02-22T02:34:20;19.50;42.00
21891;DHT22;11110;52.386;16.940;2023-02-22T02:36:57;19.50;42.00
21891;DHT22;11110;52.386;16.940;2023-02-22T02:39:29;19.50;41.90
21891;DHT22;11110;52.386;16.940;2023-02-22T02:42:04;19.50;41.90
21891;DHT22;11110;52.386;16.940;2023-02-22T02:44:36;19.50;41.80
21891;DHT22;11110;52.386;16.940;2023-02-22T02:47:13;19.60;41.80
21891;DHT22;11110;52.386;16.940;2023-02-22T02:49:49;19.60;41.70
21891;DHT22;11110;52.386;16.940;2023-02-22T02:52:20;19.50;41.60
21891;DHT22;11110;52.386;16.940;2023-02-22T02:54:50;18.80;41.30
21891;DHT22;11110;52.386;16.940;2023-02-22T02:57:19;19.50;41.70
21891;DHT22;11110;52.386;16.940;2023-02-22T02:59:48;19.50;41.80
21891;DHT22;11110;52.386;16.940;2023-02-22T03:02:34;19.50;41.70
21891;DHT22;11110;52.386;16.940;2023-02-22T03:05:18;19.50;41.60
21891;DHT22;11110;52.386;16.940;2023-02-22T03:07:54;19.50;41.50
21891;DHT22;11110;52.386;16.940;2023-02-22T03:10:42;19.50;41.50
21891;DHT22;11110;52.386;16.940;2023-02-22T03:13:15;19.50;41.30
21891;DHT22;11110;52.386;16.940;2023-02-22T03:15:51;19.50;41.40
21891;DHT22;11110;52.386;16.940;2023-02-22T03:18:28;19.40;41.40
21891;DHT22;11110;52.386;16.940;2023-02-22T03:21:04;19.40;41.60
21891;DHT22;11110;52.386;16.940;2023-02-22T03:23:39;19.40;42.20
21891;DHT22;11110;52.386;16.940;2023-02-22T03:26:13;19.40;41.50
21891;DHT22;11110;52.386;16.940;2023-02-22T03:28:47;19.40;41.60
21891;DHT22;11110;52.386;16.940;2023-02-22T03:31:22;19.40;42.40
21891;DHT22;11110;52.386;16.940;2023-02-22T03:33:57;19.30;42.40
21891;DHT22;11110;52.386;16.940;2023-02-22T03:36:29;19.30;41.90
21891;DHT22;11110;52.386;16.940;2023-02-22T03:39:01;19.30;41.70
21891;DHT22;11110;52.386;16.940;2023-02-22T03:41:33;19.20;41.60
21891;DHT22;11110;52.386;16.940;2023-02-22T03:44:07;19.20;41.20
21891;DHT22;11110;52.386;16.940;2023-02-22T03:46:37;19.10;41.20
21891;DHT22;11110;52.386;16.940;2023-02-22T03:49:11;19.00;41.40
21891;DHT22;11110;52.386;16.940;2023-02-22T03:51:42;19.00;41.60
21891;DHT22;11110;52.386;16.940;2023-02-22T03:54:11;19.00;41.90
21891;DHT22;11110;52.386;16.940;2023-02-22T03:56:50;18.90;41.80
21891;DHT22;11110;52.386;16.940;2023-02-22T03:59:22;18.90;41.90
21891;DHT22;11110;52.386;16.940;2023-02-22T04:01:54;18.90;42.10
21891;DHT22;11110;52.386;16.940;2023-02-22T04:04:24;18.80;42.00
21891;DHT22;11110;52.386;16.940;2023-02-22T04:06:53;18.80;42.00
21891;DHT22;11110;52.386;16.940;2023-02-22T04:09:22;18.80;41.90
21891;DHT22;11110;52.386;16.940;2023-02-22T04:11:51;18.70;42.00
21891;DHT22;11110;52.386;16.940;2023-02-22T04:14:20;18.70;42.10
21891;DHT22;11110;52.386;16.940;2023-02-22T04:16:50;18.60;42.00
21891;DHT22;11110;52.386;16.940;2023-02-22T04:19:19;18.60;42.00
21891;DHT22;11110;52.386;16.940;2023-02-22T04:21:50;18.60;42.00
21891;DHT22;11110;52.386;16.940;2023-02-22T04:24:24;18.60;41.80
21891;DHT22;11110;52.386;16.940;2023-02-22T04:26:53;18.50;41.80
21891;DHT22;11110;52.386;16.940;2023-02-22T04:29:23;18.50;41.90
21891;DHT22;11110;52.386;16.940;2023-02-22T04:31:52;18.40;41.90
21891;DHT22;11110;52.386;16.940;2023-02-22T04:34:21;18.40;41.90
21891;DHT22;11110;52.386;16.940;2023-02-22T04:36:51;18.30;42.00
21891;DHT22;11110;52.386;16.940;2023-02-22T04:39:20;18.40;41.60
21891;DHT22;11110;52.386;16.940;2023-02-22T04:41:50;18.30;41.30
21891;DHT22;11110;52.386;16.940;2023-02-22T04:44:19;18.20;41.10
21891;DHT22;11110;52.386;16.940;2023-02-22T04:46:48;18.20;41.10
21891;DHT22;11110;52.386;16.940;2023-02-22T04:49:16;18.10;41.00
21891;DHT22;11110;52.386;16.940;2023-02-22T04:51:46;18.00;41.30
21891;DHT22;11110;52.386;16.940;2023-02-22T04:54:18;17.90;41.20
21891;DHT22;11110;52.386;16.940;2023-02-22T04:56:47;17.90;41.90
21891;DHT22;11110;52.386;16.940;2023-02-22T04:59:16;17.90;42.00
21891;DHT22;11110;52.386;16.940;2023-02-22T05:01:52;17.90;42.10
21891;DHT22;11110;52.386;16.940;2023-02-22T05:04:21;17.80;42.00
21891;DHT22;11110;52.386;16.940;2023-02-22T05:06:49;17.80;42.00
21891;DHT22;11110;52.386;16.940;2023-02-22T05:09:22;17.70;42.00
21891;DHT22;11110;52.386;16.940;2023-02-22T05:11:51;17.80;42.10
21891;DHT22;11110;52.386;16.940;2023-02-22T05:14:19;17.70;42.20
21891;DHT22;11110;52.386;16.940;2023-02-22T05:16:48;17.70;42.20
21891;DHT22;11110;52.386;16.940;2023-02-22T05:19:17;17.70;42.30
21891;DHT22;11110;52.386;16.940;2023-02-22T05:21:46;17.70;42.30
21891;DHT22;11110;52.386;16.940;2023-02-22T05:24:15;17.60;42.20
21891;DHT22;11110;52.386;16.940;2023-02-22T05:26:45;17.60;42.60
21891;DHT22;11110;52.386;16.940;2023-02-22T05:29:14;17.60;41.70
21891;DHT22;11110;52.386;16.940;2023-02-22T05:31:42;17.60;41.60
21891;DHT22;11110;52.386;16.940;2023-02-22T05:34:12;17.50;41.60
21891;DHT22;11110;52.386;16.940;2023-02-22T05:36:40;17.50;41.50
21891;DHT22;11110;52.386;16.940;2023-02-22T05:39:09;17.40;41.70
21891;DHT22;11110;52.386;16.940;2023-02-22T05:41:38;17.40;41.80
21891;DHT22;11110;52.386;16.940;2023-02-22T05:44:08;17.40;42.00
21891;DHT22;11110;52.386;16.940;2023-02-22T05:46:37;17.40;42.10
21891;DHT22;11110;52.386;16.940;2023-02-22T05:49:06;17.30;42.10
21891;DHT22;11110;52.386;16.940;2023-02-22T05:51:34;17.30;42.10
21891;DHT22;11110;52.386;16.940;2023-02-22T05:54:03;17.30;42.10
21891;DHT22;11110;52.386;16.940;2023-02-22T05:56:31;17.30;42.10
21891;DHT22;11110;52.386;16.940;2023-02-22T05:59:00;17.30;42.20
21891;DHT22;11110;52.386;16.940;2023-02-22T06:01:30;17.30;42.50
21891;DHT22;11110;52.386;16.940;2023-02-22T06:03:59;17.20;42.20
21891;DHT22;11110;52.386;16.940;2023-02-22T06:06:28;17.20;42.00
21891;DHT22;11110;52.386;16.940;2023-02-22T06:08:56;17.20;41.90
21891;DHT22;11110;52.386;16.940;2023-02-22T06:11:25;17.30;42.40
21891;DHT22;11110;52.386;16.940;2023-02-22T06:13:54;17.00;42.30
21891;DHT22;11110;52.386;16.940;2023-02-22T06:16:22;17.00;42.60
21891;DHT22;11110;52.386;16.940;2023-02-22T06:18:53;17.00;43.40
21891;DHT22;11110;52.386;16.940;2023-02-22T06:21:21;17.00;43.60
21891;DHT22;11110;52.386;16.940;2023-02-22T06:23:50;17.00;44.00
21891;DHT22;11110;52.386;16.940;2023-02-22T06:26:18;17.00;44.00
21891;DHT22;11110;52.386;16.940;2023-02-22T06:28:47;17.10;43.70
21891;DHT22;11110;52.386;16.940;2023-02-22T06:31:16;17.10;43.20
21891;DHT22;11110;52.386;16.940;2023-02-22T06:33:45;17.10;43.00
21891;DHT22;11110;52.386;16.940;2023-02-22T06:36:15;17.10;43.60
21891;DHT22;11110;52.386;16.940;2023-02-22T06:38:44;17.20;44.20
21891;DHT22;11110;52.386;16.940;2023-02-22T06:41:12;17.20;44.10
21891;DHT22;11110;52.386;16.940;2023-02-22T06:43:42;17.20;43.50
21891;DHT22;11110;52.386;16.940;2023-02-22T06:46:12;17.20;43.30
21891;DHT22;11110;52.386;16.940;2023-02-22T06:48:43;17.20;43.40
21891;DHT22;11110;52.386;16.940;2023-02-22T06:51:12;17.20;43.40
21891;DHT22;11110;52.386;16.940;2023-02-22T06:53:42;17.20;43.00
21891;DHT22;11110;52.386;16.940;2023-02-22T06:56:11;17.30;42.90
21891;DHT22;11110;52.386;16.940;2023-02-22T06:58:39;17.30;42.80
21891;DHT22;11110;52.386;16.940;2023-02-22T07:01:08;17.20;42.90
21891;DHT22;11110;52.386;16.940;2023-02-22T07:03:37;17.20;43.00
21891;DHT22;11110;52.386;16.940;2023-02-22T07:06:06;17.20;43.10
21891;DHT22;11110;52.386;16.940;2023-02-22T07:08:37;17.20;43.40
21891;DHT22;11110;52.386;16.940;2023-02-22T07:11:06;17.30;43.70
21891;DHT22;11110;52.386;16.940;2023-02-22T07:13:35;17.30;44.00
21891;DHT22;11110;52.386;16.940;2023-02-22T07:16:04;17.30;44.00
21891;DHT22;11110;52.386;16.940;2023-02-22T07:18:33;17.30;44.00
21891;DHT22;11110;52.386;16.940;2023-02-22T07:21:02;17.30;44.40
21891;DHT22;11110;52.386;16.940;2023-02-22T07:23:31;17.30;43.80
21891;DHT22;11110;52.386;16.940;2023-02-22T07:26:00;17.30;44.10
21891;DHT22;11110;52.386;16.940;2023-02-22T07:28:30;17.40;44.20
21891;DHT22;11110;52.386;16.940;2023-02-22T07:30:59;17.40;44.30
21891;DHT22;11110;52.386;16.940;2023-02-22T07:33:27;17.50;44.50
21891;DHT22;11110;52.386;16.940;2023-02-22T07:35:56;18.00;44.80
21891;DHT22;11110;52.386;16.940;2023-02-22T07:38:25;17.60;44.50
21891;DHT22;11110;52.386;16.940;2023-02-22T07:40:54;17.60;44.50
21891;DHT22;11110;52.386;16.940;2023-02-22T07:43:26;17.70;44.70
21891;DHT22;11110;52.386;16.940;2023-02-22T07:45:59;17.80;44.60
21891;DHT22;11110;52.386;16.940;2023-02-22T07:48:30;17.80;44.50
21891;DHT22;11110;52.386;16.940;2023-02-22T07:50:59;17.90;44.50
21891;DHT22;11110;52.386;16.940;2023-02-22T07:53:29;17.90;44.30
21891;DHT22;11110;52.386;16.940;2023-02-22T07:56:00;18.00;44.30
21891;DHT22;11110;52.386;16.940;2023-02-22T07:58:30;18.00;44.30
21891;DHT22;11110;52.386;16.940;2023-02-22T08:01:01;18.00;44.20
21891;DHT22;11110;52.386;16.940;2023-02-22T08:03:31;18.00;44.30
21891;DHT22;11110;52.386;16.940;2023-02-22T08:06:04;18.20;44.40
21891;DHT22;11110;52.386;16.940;2023-02-22T08:08:33;18.10;44.30
21891;DHT22;11110;52.386;16.940;2023-02-22T08:11:02;18.20;44.20
21891;DHT22;11110;52.386;16.940;2023-02-22T08:13:32;18.10;44.20
21891;DHT22;11110;52.386;16.940;2023-02-22T08:16:02;18.20;44.10
21891;DHT22;11110;52.386;16.940;2023-02-22T08:18:31;18.10;44.00
21891;DHT22;11110;52.386;16.940;2023-02-22T08:20:59;18.10;44.00
21891;DHT22;11110;52.386;16.940;2023-02-22T08:23:28;18.20;44.70
21891;DHT22;11110;52.386;16.940;2023-02-22T08:26:03;18.10;44.00
21891;DHT22;11110;52.386;16.940;2023-02-22T08:28:32;18.10;44.20
21891;DHT22;11110;52.386;16.940;2023-02-22T08:31:02;18.10;44.00
21891;DHT22;11110;52.386;16.940;2023-02-22T08:33:34;18.10;44.00
21891;DHT22;11110;52.386;16.940;2023-02-22T08:36:03;18.10;44.00
21891;DHT22;11110;52.386;16.940;2023-02-22T08:38:32;18.20;44.10
21891;DHT22;11110;52.386;16.940;2023-02-22T08:41:01;18.20;44.00
21891;DHT22;11110;52.386;16.940;2023-02-22T08:43:29;18.20;44.00
21891;DHT22;11110;52.386;16.940;2023-02-22T08:45:58;18.30;44.00
21891;DHT22;11110;52.386;16.940;2023-02-22T08:48:28;18.30;43.90
21891;DHT22;11110;52.386;16.940;2023-02-22T08:50:57;18.40;43.90
21891;DHT22;11110;52.386;16.940;2023-02-22T08:53:25;18.30;43.80
21891;DHT22;11110;52.386;16.940;2023-02-22T08:55:54;18.30;43.70
21891;DHT22;11110;52.386;16.940;2023-02-22T08:58:23;18.40;43.70
21891;DHT22;11110;52.386;16.940;2023-02-22T09:00:51;18.50;43.60
21891;DHT22;11110;52.386;16.940;2023-02-22T09:03:20;18.50;43.40
21891;DHT22;11110;52.386;16.940;2023-02-22T09:05:50;18.60;44.10
21891;DHT22;11110;52.386;16.940;2023-02-22T09:08:19;18.70;43.10
21891;DHT22;11110;52.386;16.940;2023-02-22T09:10:49;18.80;43.20
21891;DHT22;11110;52.386;16.940;2023-02-22T09:13:18;18.80;43.20
21891;DHT22;11110;52.386;16.940;2023-02-22T09:15:46;18.90;43.00
21891;DHT22;11110;52.386;16.940;2023-02-22T09:18:15;19.00;42.90
21891;DHT22;11110;52.386;16.940;2023-02-22T09:20:44;19.00;42.80
21891;DHT22;11110;52.386;16.940;2023-02-22T09:23:14;19.00;42.70
21891;DHT22;11110;52.386;16.940;2023-02-22T09:25:42;19.10;42.80
21891;DHT22;11110;52.386;16.940;2023-02-22T09:28:11;19.10;42.80
21891;DHT22;11110;52.386;16.940;2023-02-22T09:30:40;19.20;42.70
21891;DHT22;11110;52.386;16.940;2023-02-22T09:33:11;19.30;42.40
21891;DHT22;11110;52.386;16.940;2023-02-22T09:35:41;19.40;42.40
21891;DHT22;11110;52.386;16.940;2023-02-22T09:38:17;19.40;42.20
21891;DHT22;11110;52.386;16.940;2023-02-22T09:40:48;19.40;42.10
21891;DHT22;11110;52.386;16.940;2023-02-22T09:43:26;19.40;42.00
21891;DHT22;11110;52.386;16.940;2023-02-22T09:46:14;19.40;42.00
21891;DHT22;11110;52.386;16.940;2023-02-22T09:48:55;19.50;41.90
21891;DHT22;11110;52.386;16.940;2023-02-22T09:51:29;19.40;42.00
21891;DHT22;11110;52.386;16.940;2023-02-22T09:54:05;19.50;42.00
21891;DHT22;11110;52.386;16.940;2023-02-22T09:56:40;19.50;41.90
21891;DHT22;11110;52.386;16.940;2023-02-22T09:59:17;19.50;41.90
21891;DHT22;11110;52.386;16.940;2023-02-22T10:01:54;19.40;41.80
21891;DHT22;11110;52.386;16.940;2023-02-22T10:04:37;19.50;41.60
21891;DHT22;11110;52.386;16.940;2023-02-22T10:07:18;19.40;41.60
21891;DHT22;11110;52.386;16.940;2023-02-22T10:09:54;19.40;41.70
21891;DHT22;11110;52.386;16.940;2023-02-22T10:12:28;19.40;41.80
21891;DHT22;11110;52.386;16.940;2023-02-22T10:15:24;19.40;41.70
21891;DHT22;11110;52.386;16.940;2023-02-22T10:18:06;19.50;41.40
21891;DHT22;11110;52.386;16.940;2023-02-22T10:20:47;19.40;41.50
21891;DHT22;11110;52.386;16.940;2023-02-22T10:23:26;19.40;41.70
21891;DHT22;11110;52.386;16.940;2023-02-22T10:26:06;19.50;41.80
21891;DHT22;11110;52.386;16.940;2023-02-22T10:28:38;19.50;41.60
21891;DHT22;11110;52.386;16.940;2023-02-22T10:31:19;19.50;41.40
21891;DHT22;11110;52.386;16.940;2023-02-22T10:33:54;19.60;41.60
21891;DHT22;11110;52.386;16.940;2023-02-22T10:36:25;19.50;41.70
21891;DHT22;11110;52.386;16.940;2023-02-22T10:38:57;19.60;41.50
21891;DHT22;11110;52.386;16.940;2023-02-22T10:41:29;19.60;41.50
21891;DHT22;11110;52.386;16.940;2023-02-22T10:43:59;19.70;41.50
21891;DHT22;11110;52.386;16.940;2023-02-22T10:46:31;19.70;41.40
21891;DHT22;11110;52.386;16.940;2023-02-22T10:49:03;19.80;41.10
21891;DHT22;11110;52.386;16.940;2023-02-22T10:51:34;19.90;41.00
21891;DHT22;11110;52.386;16.940;2023-02-22T10:54:20;19.90;41.00
21891;DHT22;11110;52.386;16.940;2023-02-22T10:56:55;20.00;40.70
21891;DHT22;11110;52.386;16.940;2023-02-22T10:59:30;20.00;40.50
21891;DHT22;11110;52.386;16.940;2023-02-22T11:02:06;20.10;40.40
21891;DHT22;11110;52.386;16.940;2023-02-22T11:04:45;20.10;40.20
21891;DHT22;11110;52.386;16.940;2023-02-22T11:07:19;20.10;40.10
21891;DHT22;11110;52.386;16.940;2023-02-22T11:09:52;20.20;40.30
21891;DHT22;11110;52.386;16.940;2023-02-22T11:12:32;20.20;40.20
21891;DHT22;11110;52.386;16.940;2023-02-22T11:15:24;20.20;40.10
21891;DHT22;11110;52.386;16.940;2023-02-22T11:17:55;20.30;40.10
21891;DHT22;11110;52.386;16.940;2023-02-22T11:20:29;20.30;39.90
21891;DHT22;11110;52.386;16.940;2023-02-22T11:23:02;20.30;39.70
21891;DHT22;11110;52.386;16.940;2023-02-22T11:25:35;20.40;39.70
21891;DHT22;11110;52.386;16.940;2023-02-22T11:28:10;20.40;39.40
21891;DHT22;11110;52.386;16.940;2023-02-22T11:30:41;20.50;39.50
21891;DHT22;11110;52.386;16.940;2023-02-22T11:33:49;20.50;39.20
21891;DHT22;11110;52.386;16.940;2023-02-22T11:36:30;20.60;39.00
21891;DHT22;11110;52.386;16.940;2023-02-22T11:39:00;20.60;39.10
21891;DHT22;11110;52.386;16.940;2023-02-22T11:41:34;20.60;39.10
21891;DHT22;11110;52.386;16.940;2023-02-22T11:44:22;20.70;39.00
21891;DHT22;11110;52.386;16.940;2023-02-22T11:46:52;20.70;38.80
21891;DHT22;11110;52.386;16.940;2023-02-22T11:49:23;20.80;38.60
21891;DHT22;11110;52.386;16.940;2023-02-22T11:52:09;20.80;38.70
21891;DHT22;11110;52.386;16.940;2023-02-22T11:55:07;20.90;38.70
21891;DHT22;11110;52.386;16.940;2023-02-22T11:58:25;21.00;38.20
21891;DHT22;11110;52.386;16.940;2023-02-22T12:01:04;21.10;37.90
21891;DHT22;11110;52.386;16.940;2023-02-22T12:03:47;21.10;37.80
21891;DHT22;11110;52.386;16.940;2023-02-22T12:06:29;21.20;37.90
21891;DHT22;11110;52.386;16.940;2023-02-22T12:09:08;21.20;37.80
21891;DHT22;11110;52.386;16.940;2023-02-22T12:11:47;21.20;37.80
21891;DHT22;11110;52.386;16.940;2023-02-22T12:14:25;21.20;37.70
21891;DHT22;11110;52.386;16.940;2023-02-22T12:17:13;21.20;37.70
21891;DHT22;11110;52.386;16.940;2023-02-22T12:19:48;21.20;37.70
21891;DHT22;11110;52.386;16.940;2023-02-22T12:22:21;21.20;37.70
21891;DHT22;11110;52.386;16.940;2023-02-22T12:24:56;21.30;37.50
21891;DHT22;11110;52.386;16.940;2023-02-22T12:27:39;21.30;37.60
21891;DHT22;11110;52.386;16.940;2023-02-22T12:30:14;21.30;37.50
21891;DHT22;11110;52.386;16.940;2023-02-22T12:32:50;21.30;37.40
21891;DHT22;11110;52.386;16.940;2023-02-22T12:35:22;21.30;37.30
21891;DHT22;11110;52.386;16.940;2023-02-22T12:37:59;21.30;37.40
21891;DHT22;11110;52.386;16.940;2023-02-22T12:40:34;21.30;37.40
21891;DHT22;11110;52.386;16.940;2023-02-22T12:43:12;21.30;36.90
21891;DHT22;11110;52.386;16.940;2023-02-22T12:45:46;21.40;36.90
21891;DHT22;11110;52.386;16.940;2023-02-22T12:48:28;21.40;36.80
21891;DHT22;11110;52.386;16.940;2023-02-22T12:51:14;21.40;36.90
21891;DHT22;11110;52.386;16.940;2023-02-22T12:53:54;21.40;36.50
21891;DHT22;11110;52.386;16.940;2023-02-22T12:56:30;21.40;36.60
21891;DHT22;11110;52.386;16.940;2023-02-22T12:59:08;21.40;36.60
21891;DHT22;11110;52.386;16.940;2023-02-22T13:01:42;21.50;36.70
21891;DHT22;11110;52.386;16.940;2023-02-22T13:04:13;21.50;36.40
21891;DHT22;11110;52.386;16.940;2023-02-22T13:07:02;21.50;36.20
21891;DHT22;11110;52.386;16.940;2023-02-22T13:10:02;21.50;37.00
21891;DHT22;11110;52.386;16.940;2023-02-22T13:12:45;21.50;36.30
21891;DHT22;11110;52.386;16.940;2023-02-22T13:15:22;21.60;36.10
21891;DHT22;11110;52.386;16.940;2023-02-22T13:17:59;21.60;36.10
21891;DHT22;11110;52.386;16.940;2023-02-22T13:20:35;21.60;35.90
21891;DHT22;11110;52.386;16.940;2023-02-22T13:23:09;21.60;35.80
21891;DHT22;11110;52.386;16.940;2023-02-22T13:25:44;21.70;35.50
21891;DHT22;11110;52.386;16.940;2023-02-22T13:28:21;21.70;35.40
21891;DHT22;11110;52.386;16.940;2023-02-22T13:31:26;21.80;35.00
21891;DHT22;11110;52.386;16.940;2023-02-22T13:34:18;21.70;35.10
21891;DHT22;11110;52.386;16.940;2023-02-22T13:37:11;21.70;35.20
21891;DHT22;11110;52.386;16.940;2023-02-22T13:40:03;21.70;35.10
21891;DHT22;11110;52.386;16.940;2023-02-22T13:42:52;21.70;35.10
21891;DHT22;11110;52.386;16.940;2023-02-22T13:45:41;21.70;35.00
21891;DHT22;11110;52.386;16.940;2023-02-22T13:49:06;21.60;35.00
21891;DHT22;11110;52.386;16.940;2023-02-22T13:51:45;21.60;35.00
21891;DHT22;11110;52.386;16.940;2023-02-22T13:54:21;21.60;34.90
21891;DHT22;11110;52.386;16.940;2023-02-22T13:56:53;21.60;34.80
21891;DHT22;11110;52.386;16.940;2023-02-22T13:59:26;21.60;34.70
21891;DHT22;11110;52.386;16.940;2023-02-22T14:01:56;21.50;34.90
21891;DHT22;11110;52.386;16.940;2023-02-22T14:04:43;21.60;34.90
21891;DHT22;11110;52.386;16.940;2023-02-22T14:10:48;21.50;34.70
21891;DHT22;11110;52.386;16.940;2023-02-22T14:13:18;21.40;34.80
21891;DHT22;11110;52.386;16.940;2023-02-22T14:16:18;21.40;34.60
21891;DHT22;11110;52.386;16.940;2023-02-22T14:18:49;21.50;34.50
21891;DHT22;11110;52.386;16.940;2023-02-22T14:21:19;21.40;34.50
21891;DHT22;11110;52.386;16.940;2023-02-22T14:23:50;21.40;34.80
21891;DHT22;11110;52.386;16.940;2023-02-22T14:26:24;21.30;34.80
21891;DHT22;11110;52.386;16.940;2023-02-22T14:28:56;21.40;34.80
21891;DHT22;11110;52.386;16.940;2023-02-22T14:31:28;21.40;34.60
21891;DHT22;11110;52.386;16.940;2023-02-22T14:34:09;21.40;34.30
21891;DHT22;11110;52.386;16.940;2023-02-22T14:36:43;21.40;34.70
21891;DHT22;11110;52.386;16.940;2023-02-22T14:39:26;21.40;34.80
21891;DHT22;11110;52.386;16.940;2023-02-22T14:42:03;21.40;35.00
21891;DHT22;11110;52.386;16.940;2023-02-22T14:44:37;21.50;35.10
21891;DHT22;11110;52.386;16.940;2023-02-22T14:47:13;21.50;34.90
21891;DHT22;11110;52.386;16.940;2023-02-22T14:49:48;21.60;34.60
21891;DHT22;11110;52.386;16.940;2023-02-22T14:52:22;21.60;34.30
21891;DHT22;11110;52.386;16.940;2023-02-22T14:54:59;21.70;34.10
21891;DHT22;11110;52.386;16.940;2023-02-22T14:57:41;21.80;33.90
21891;DHT22;11110;52.386;16.940;2023-02-22T15:00:16;21.90;33.80
21891;DHT22;11110;52.386;16.940;2023-02-22T15:02:50;21.80;33.60
21891;DHT22;11110;52.386;16.940;2023-02-22T15:05:25;21.90;33.50
21891;DHT22;11110;52.386;16.940;2023-02-22T15:07:59;21.90;33.30
21891;DHT22;11110;52.386;16.940;2023-02-22T15:10:30;21.90;33.00
21891;DHT22;11110;52.386;16.940;2023-02-22T15:13:03;21.90;32.90
21891;DHT22;11110;52.386;16.940;2023-02-22T15:15:40;22.00;32.90
21891;DHT22;11110;52.386;16.940;2023-02-22T15:18:22;22.00;32.90
21891;DHT22;11110;52.386;16.940;2023-02-22T15:20:55;22.00;33.00
21891;DHT22;11110;52.386;16.940;2023-02-22T15:23:26;22.00;33.00
21891;DHT22;11110;52.386;16.940;2023-02-22T15:25:56;22.10;32.80
21891;DHT22;11110;52.386;16.940;2023-02-22T15:28:28;22.70;31.70
21891;DHT22;11110;52.386;16.940;2023-02-22T15:31:14;22.30;32.10
21891;DHT22;11110;52.386;16.940;2023-02-22T15:33:44;22.30;31.90
21891;DHT22;11110;52.386;16.940;2023-02-22T15:36:14;22.20;31.60
21891;DHT22;11110;52.386;16.940;2023-02-22T15:38:48;22.20;31.70
21891;DHT22;11110;52.386;16.940;2023-02-22T15:41:24;22.20;31.70
21891;DHT22;11110;52.386;16.940;2023-02-22T15:44:04;22.20;31.70
21891;DHT22;11110;52.386;16.940;2023-02-22T15:46:49;22.20;31.90
21891;DHT22;11110;52.386;16.940;2023-02-22T15:49:22;22.00;31.90
21891;DHT22;11110;52.386;16.940;2023-02-22T15:52:07;22.00;31.90
21891;DHT22;11110;52.386;16.940;2023-02-22T15:54:40;21.90;32.00
21891;DHT22;11110;52.386;16.940;2023-02-22T15:57:13;21.90;32.10
21891;DHT22;11110;52.386;16.940;2023-02-22T15:59:47;21.80;32.30
21891;DHT22;11110;52.386;16.940;2023-02-22T16:02:29;21.70;32.40
21891;DHT22;11110;52.386;16.940;2023-02-22T16:05:01;21.60;32.70